Time;durP1;ratioP1;P1;durP2;ratioP2;P2;SDS_P1;SDS_P2;PMS_P1;PMS_P2;Temp;Humidity;BMP_temperature;BMP_pressure;BME280_temperature;BME280_humidity;BME280_pressure;Samples;Min_cycle;Max_cycle;Signal;HPM_P1;HPM_P2
2022/12/06 00:01:46;;;;;;;;;;;5.00;99.90;;;;;;2603905;54;20395;31
2022/12/06 00:04:24;;;;;;;;;;;5.00;99.90;;;;;;2622373;46;20745;31
2022/12/06 00:06:59;;;;;;;;;;;5.00;99.90;;;;;;2622283;46;19946;31
2022/12/06 00:09:34;;;;;;;;;;;5.00;99.90;;;;;;2603593;54;20734;31
2022/12/06 00:12:11;;;;;;;;;;;5.00;99.90;;;;;;2602855;54;19951;31
2022/12/06 00:14:46;;;;;;;;;;;5.00;99.90;;;;;;2621869;46;20757;31
2022/12/06 00:17:21;;;;;;;;;;;5.10;99.90;;;;;;2773955;31;20314;31
2022/12/06 00:19:57;;;;;;;;;;;5.00;99.90;;;;;;2621838;46;19935;31
2022/12/06 00:22:32;;;;;;;;;;;5.10;99.90;;;;;;2622037;46;20041;31
2022/12/06 00:25:08;;;;;;;;;;;5.10;99.90;;;;;;2621796;46;20012;31
2022/12/06 00:27:43;;;;;;;;;;;5.10;99.90;;;;;;2622224;46;20791;31
2022/12/06 00:30:18;;;;;;;;;;;5.10;99.90;;;;;;2603493;54;20750;31
2022/12/06 00:32:52;;;;;;;;;;;5.10;99.90;;;;;;2603737;54;20451;31
2022/12/06 00:35:30;;;;;;;;;;;5.10;99.90;;;;;;2603667;54;21155;31
2022/12/06 00:38:04;;;;;;;;;;;5.10;99.90;;;;;;2603543;54;21156;31
2022/12/06 00:40:40;;;;;;;;;;;5.10;99.90;;;;;;2622068;46;19958;31
2022/12/06 00:43:12;;;;;;;;;;;5.10;99.90;;;;;;2602662;54;19943;31
2022/12/06 00:45:48;;;;;;;;;;;5.10;99.90;;;;;;2603563;54;19961;31
2022/12/06 00:48:22;;;;;;;;;;;5.10;99.90;;;;;;2603404;54;19951;31
2022/12/06 00:51:00;;;;;;;;;;;5.10;99.90;;;;;;2603457;54;20811;31
2022/12/06 00:53:34;;;;;;;;;;;5.10;99.90;;;;;;2603165;54;19935;31
2022/12/06 00:56:08;;;;;;;;;;;5.10;99.90;;;;;;2603412;54;20766;31
2022/12/06 00:58:43;;;;;;;;;;;5.10;99.90;;;;;;2773366;31;20353;31
2022/12/06 01:01:19;;;;;;;;;;;5.10;99.90;;;;;;2603568;54;19935;31
2022/12/06 01:03:53;;;;;;;;;;;5.10;99.90;;;;;;2603583;54;19942;31
2022/12/06 01:06:32;;;;;;;;;;;5.10;99.90;;;;;;2621907;46;20806;31
2022/12/06 01:09:07;;;;;;;;;;;5.10;99.90;;;;;;2603277;54;21493;31
2022/12/06 01:11:41;;;;;;;;;;;5.10;99.90;;;;;;2622013;46;20753;31
2022/12/06 01:14:15;;;;;;;;;;;5.10;99.90;;;;;;2603375;54;19939;31
2022/12/06 01:16:50;;;;;;;;;;;5.10;99.90;;;;;;2603736;54;19993;31
2022/12/06 01:19:24;;;;;;;;;;;5.10;99.90;;;;;;2622093;46;19993;31
2022/12/06 01:22:02;;;;;;;;;;;5.10;99.90;;;;;;2603521;54;19951;31
2022/12/06 01:24:37;;;;;;;;;;;5.10;99.90;;;;;;2603568;54;19941;31
2022/12/06 01:27:10;;;;;;;;;;;5.10;99.90;;;;;;2621968;46;20813;31
2022/12/06 01:29:45;;;;;;;;;;;5.10;99.90;;;;;;2603409;54;20062;31
2022/12/06 01:32:19;;;;;;;;;;;5.10;99.90;;;;;;2603598;54;19941;31
2022/12/06 01:34:53;;;;;;;;;;;5.10;99.90;;;;;;2603436;54;19934;31
2022/12/06 01:37:30;;;;;;;;;;;5.50;99.90;;;;;;2603540;54;19994;31
2022/12/06 01:40:05;;;;;;;;;;;5.10;99.90;;;;;;2603355;54;20747;31
2022/12/06 01:42:39;;;;;;;;;;;5.10;99.90;;;;;;2603412;54;19989;31
2022/12/06 01:45:13;;;;;;;;;;;5.10;99.90;;;;;;2603465;54;19934;31
2022/12/06 01:47:47;;;;;;;;;;;5.10;99.90;;;;;;2621704;46;19941;31
2022/12/06 01:50:22;;;;;;;;;;;5.10;99.90;;;;;;2621945;46;19950;31
2022/12/06 01:52:59;;;;;;;;;;;5.10;99.90;;;;;;2621618;46;20740;31
2022/12/06 01:55:34;;;;;;;;;;;5.10;99.90;;;;;;2603358;54;19941;31
2022/12/06 01:58:09;;;;;;;;;;;5.00;99.90;;;;;;2603493;54;20799;31
2022/12/06 02:00:46;;;;;;;;;;;5.00;99.90;;;;;;2603382;54;20830;31
2022/12/06 02:03:21;;;;;;;;;;;5.00;99.90;;;;;;2603255;54;20714;31
2022/12/06 02:05:55;;;;;;;;;;;5.00;99.90;;;;;;2603485;54;20707;31
2022/12/06 02:08:31;;;;;;;;;;;5.00;99.90;;;;;;2603535;54;20721;31
2022/12/06 02:11:06;;;;;;;;;;;5.00;99.90;;;;;;2602717;54;20786;31
2022/12/06 02:13:38;;;;;;;;;;;5.00;99.90;;;;;;2603488;54;19963;31
2022/12/06 02:16:20;;;;;;;;;;;5.00;99.90;;;;;;2602903;54;19935;31
2022/12/06 02:18:56;;;;;;;;;;;5.00;99.90;;;;;;2603341;54;19941;31
2022/12/06 02:21:33;;;;;;;;;;;5.00;99.90;;;;;;2621539;47;19934;31
2022/12/06 02:24:22;;;;;;;;;;;5.00;99.90;;;;;;2621516;47;20724;31
2022/12/06 02:26:59;;;;;;;;;;;5.00;99.90;;;;;;2603069;54;20061;31
2022/12/06 02:29:48;;;;;;;;;;;5.00;99.90;;;;;;2603113;54;20840;31
2022/12/06 02:32:26;;;;;;;;;;;5.00;99.90;;;;;;2603111;54;20846;31
2022/12/06 02:35:01;;;;;;;;;;;5.00;99.90;;;;;;2603164;54;20710;31
2022/12/06 02:37:36;;;;;;;;;;;5.00;99.90;;;;;;2603311;54;19976;31
2022/12/06 02:40:09;;;;;;;;;;;5.00;99.90;;;;;;2603350;54;20740;31
2022/12/06 02:42:44;;;;;;;;;;;5.00;99.90;;;;;;2621792;47;19934;31
2022/12/06 02:45:19;;;;;;;;;;;5.00;99.90;;;;;;2603232;54;19960;31
2022/12/06 02:47:56;;;;;;;;;;;5.00;99.90;;;;;;2603241;54;20042;31
2022/12/06 02:50:32;;;;;;;;;;;5.00;99.90;;;;;;2603002;54;20802;31
2022/12/06 02:53:05;;;;;;;;;;;5.00;99.90;;;;;;2603221;54;20462;31
2022/12/06 02:55:39;;;;;;;;;;;4.90;99.90;;;;;;2602995;54;19958;31
2022/12/06 02:58:13;;;;;;;;;;;4.90;99.90;;;;;;2678426;39;20280;31
2022/12/06 03:00:47;;;;;;;;;;;4.90;99.90;;;;;;2603050;54;19934;31
2022/12/06 03:03:42;;;;;;;;;;;4.90;99.90;;;;;;2701602;39;21227;31
2022/12/06 03:06:34;;;;;;;;;;;4.90;99.90;;;;;;2702283;39;20226;31
2022/12/06 03:09:15;;;;;;;;;;;4.90;99.90;;;;;;2603920;54;19934;31
2022/12/06 03:11:51;;;;;;;;;;;4.90;99.90;;;;;;2604066;54;20768;31
2022/12/06 03:14:24;;;;;;;;;;;4.90;99.90;;;;;;2622489;46;20497;31
2022/12/06 03:17:02;;;;;;;;;;;4.90;99.90;;;;;;2622521;46;19934;31
2022/12/06 03:19:37;;;;;;;;;;;4.90;99.90;;;;;;2773874;31;20302;31
2022/12/06 03:22:14;;;;;;;;;;;4.90;99.90;;;;;;2603904;54;20750;31
2022/12/06 03:24:51;;;;;;;;;;;4.90;99.90;;;;;;2603745;54;20778;31
2022/12/06 03:27:25;;;;;;;;;;;5.00;99.90;;;;;;2622518;46;19942;31
2022/12/06 03:30:00;;;;;;;;;;;4.90;99.90;;;;;;2603561;54;20755;31
2022/12/06 03:32:35;;;;;;;;;;;4.90;99.90;;;;;;2622364;46;20000;31
2022/12/06 03:35:10;;;;;;;;;;;4.90;99.90;;;;;;2603923;54;19935;31
2022/12/06 03:37:45;;;;;;;;;;;4.90;99.90;;;;;;2603666;54;19934;31
2022/12/06 03:40:23;;;;;;;;;;;4.90;99.90;;;;;;2603768;54;19942;31
2022/12/06 03:42:57;;;;;;;;;;;4.90;99.90;;;;;;2603121;54;19957;31
2022/12/06 03:45:39;;;;;;;;;;;4.90;99.90;;;;;;2603758;54;19972;31
2022/12/06 03:48:12;;;;;;;;;;;4.90;99.90;;;;;;2603617;54;19947;31
2022/12/06 03:50:46;;;;;;;;;;;4.90;99.90;;;;;;2720969;39;20488;31
2022/12/06 03:53:21;;;;;;;;;;;4.90;99.90;;;;;;2603899;54;19961;31
2022/12/06 03:55:58;;;;;;;;;;;4.90;99.90;;;;;;2603567;54;20775;31
2022/12/06 03:58:32;;;;;;;;;;;4.90;99.90;;;;;;2603860;54;19966;31
2022/12/06 04:01:07;;;;;;;;;;;4.90;99.90;;;;;;2792129;31;20485;31
2022/12/06 04:03:42;;;;;;;;;;;4.90;99.90;;;;;;2622317;46;19941;31
2022/12/06 04:06:16;;;;;;;;;;;4.90;99.90;;;;;;2622198;46;20846;31
2022/12/06 04:08:51;;;;;;;;;;;4.90;99.90;;;;;;2622331;46;19934;31
2022/12/06 04:11:28;;;;;;;;;;;4.90;99.90;;;;;;2603738;54;20762;31
2022/12/06 04:14:02;;;;;;;;;;;4.90;99.90;;;;;;2603655;54;19934;31
2022/12/06 04:19:22;;;;;;;;;;;4.90;99.90;;;;;;2603889;54;20736;31
2022/12/06 04:24:44;;;;;;;;;;;4.90;99.90;;;;;;2603567;54;20767;31
2022/12/06 04:43:40;;;;;;;;;;;4.90;99.90;;;;;;2603667;54;19982;31
2022/12/06 04:44:09;;;;;;;;;;;5.30;99.90;;;;;;2622276;46;20802;31
2022/12/06 04:46:44;;;;;;;;;;;5.00;99.90;;;;;;2622167;46;19939;31
2022/12/06 04:49:17;;;;;;;;;;;5.00;99.90;;;;;;2603817;54;19942;31
2022/12/06 04:51:51;;;;;;;;;;;5.00;99.90;;;;;;2602718;54;19934;31
2022/12/06 04:54:24;;;;;;;;;;;5.00;99.90;;;;;;2621482;46;20763;31
2022/12/06 04:56:59;;;;;;;;;;;5.00;99.90;;;;;;2603503;54;20801;31
2022/12/06 04:59:35;;;;;;;;;;;4.90;99.90;;;;;;2603477;54;20764;31
2022/12/06 05:02:10;;;;;;;;;;;5.00;99.90;;;;;;2603596;54;20458;31
2022/12/06 05:04:45;;;;;;;;;;;4.90;99.90;;;;;;2603697;54;20721;31
2022/12/06 05:07:20;;;;;;;;;;;4.90;99.90;;;;;;2603510;54;20782;31
2022/12/06 05:09:54;;;;;;;;;;;4.90;99.90;;;;;;2603544;54;19942;31
2022/12/06 05:12:28;;;;;;;;;;;4.90;99.90;;;;;;2622167;46;19935;31
2022/12/06 05:15:05;;;;;;;;;;;4.90;99.90;;;;;;2602847;54;19941;31
2022/12/06 05:17:39;;;;;;;;;;;4.90;99.90;;;;;;2603256;54;19945;31
2022/12/06 05:20:14;;;;;;;;;;;4.80;99.90;;;;;;2622147;46;20768;31
2022/12/06 05:22:47;;;;;;;;;;;4.80;99.90;;;;;;2603673;54;19934;31
2022/12/06 05:25:22;;;;;;;;;;;4.80;99.90;;;;;;2603385;54;20781;31
2022/12/06 05:27:55;;;;;;;;;;;4.80;99.90;;;;;;2720285;39;20285;31
2022/12/06 05:30:32;;;;;;;;;;;4.80;99.90;;;;;;2603164;54;19994;31
2022/12/06 05:33:07;;;;;;;;;;;4.70;99.90;;;;;;2603514;54;20741;31
2022/12/06 05:35:43;;;;;;;;;;;4.70;99.90;;;;;;2603147;54;20319;31
2022/12/06 05:38:16;;;;;;;;;;;4.70;99.90;;;;;;2621636;46;19941;31
2022/12/06 05:40:49;;;;;;;;;;;4.70;99.90;;;;;;2622159;46;19946;31
2022/12/06 05:43:25;;;;;;;;;;;4.70;99.90;;;;;;2603482;54;19961;31
2022/12/06 05:46:02;;;;;;;;;;;4.70;99.90;;;;;;2603420;54;19945;31
2022/12/06 05:48:35;;;;;;;;;;;4.70;99.90;;;;;;2603710;54;20000;31
2022/12/06 05:51:09;;;;;;;;;;;4.80;99.90;;;;;;2603239;54;19935;31
2022/12/06 05:53:43;;;;;;;;;;;4.80;99.90;;;;;;2621802;46;19935;31
2022/12/06 05:56:17;;;;;;;;;;;4.80;99.90;;;;;;2621644;46;19938;31
2022/12/06 05:58:51;;;;;;;;;;;4.80;99.90;;;;;;2622097;46;19942;31
2022/12/06 06:01:30;;;;;;;;;;;4.80;99.90;;;;;;2603240;54;19935;31
2022/12/06 06:04:05;;;;;;;;;;;4.80;99.90;;;;;;2603315;54;19935;31
2022/12/06 06:06:38;;;;;;;;;;;4.70;99.90;;;;;;2603204;54;20051;31
2022/12/06 06:09:13;;;;;;;;;;;4.70;99.90;;;;;;2621653;47;19969;31
2022/12/06 06:11:49;;;;;;;;;;;4.70;99.90;;;;;;2603467;54;20683;31
2022/12/06 06:14:24;;;;;;;;;;;4.70;99.90;;;;;;2603377;54;20764;31
2022/12/06 06:17:00;;;;;;;;;;;4.70;99.90;;;;;;2603232;54;19941;31
2022/12/06 06:19:35;;;;;;;;;;;4.70;99.90;;;;;;2621809;47;20691;31
2022/12/06 06:22:09;;;;;;;;;;;4.70;99.90;;;;;;2603103;54;19957;31
2022/12/06 06:24:44;;;;;;;;;;;4.70;99.90;;;;;;2621567;47;19944;31
2022/12/06 06:27:18;;;;;;;;;;;4.70;99.90;;;;;;2621848;47;19942;31
2022/12/06 06:29:54;;;;;;;;;;;4.70;99.90;;;;;;2621686;47;19947;31
2022/12/06 06:32:30;;;;;;;;;;;4.70;99.90;;;;;;2603008;54;20769;31
2022/12/06 06:35:04;;;;;;;;;;;4.70;99.90;;;;;;2621574;47;19934;31
2022/12/06 06:37:42;;;;;;;;;;;4.70;99.90;;;;;;2621616;47;19939;31
2022/12/06 06:40:15;;;;;;;;;;;4.70;99.90;;;;;;2621877;47;19935;31
2022/12/06 06:42:50;;;;;;;;;;;4.60;99.90;;;;;;2604149;54;19946;31
2022/12/06 06:45:25;;;;;;;;;;;4.60;99.90;;;;;;2604082;54;19935;31
2022/12/06 06:48:05;;;;;;;;;;;4.50;99.90;;;;;;2604108;54;20010;31
2022/12/06 06:50:39;;;;;;;;;;;4.50;99.90;;;;;;2604102;54;19942;31
2022/12/06 06:53:13;;;;;;;;;;;4.50;99.90;;;;;;2622590;46;19934;31
2022/12/06 06:55:49;;;;;;;;;;;4.50;99.90;;;;;;2603984;54;20783;31
2022/12/06 06:58:25;;;;;;;;;;;4.40;99.90;;;;;;2622455;46;19935;31
2022/12/06 07:01:01;;;;;;;;;;;4.40;99.90;;;;;;2622399;46;19941;31
2022/12/06 07:03:39;;;;;;;;;;;4.40;99.90;;;;;;2604164;54;19961;31
2022/12/06 07:06:12;;;;;;;;;;;4.30;99.90;;;;;;2622689;46;19942;31
2022/12/06 07:08:48;;;;;;;;;;;4.30;99.90;;;;;;2603943;54;19941;31
2022/12/06 07:11:22;;;;;;;;;;;4.30;99.90;;;;;;2603659;54;20752;31
2022/12/06 07:13:59;;;;;;;;;;;4.20;99.90;;;;;;2603773;54;20078;31
2022/12/06 07:16:35;;;;;;;;;;;4.20;99.90;;;;;;2603963;54;19935;31
2022/12/06 07:19:11;;;;;;;;;;;4.20;99.90;;;;;;2622067;46;19942;31
2022/12/06 07:21:47;;;;;;;;;;;4.20;99.90;;;;;;2622598;46;20021;31
2022/12/06 07:24:20;;;;;;;;;;;4.90;99.90;;;;;;2622356;46;20730;31
2022/12/06 07:26:56;;;;;;;;;;;4.20;99.90;;;;;;2603925;54;19941;31
2022/12/06 07:29:30;;;;;;;;;;;4.50;99.90;;;;;;2603813;54;20045;31
2022/12/06 07:32:05;;;;;;;;;;;4.20;99.90;;;;;;2603838;54;20719;31
2022/12/06 07:34:42;;;;;;;;;;;4.20;99.90;;;;;;2603772;54;19941;31
2022/12/06 07:37:19;;;;;;;;;;;4.20;99.90;;;;;;2603968;54;20754;31
2022/12/06 07:39:53;;;;;;;;;;;4.20;99.90;;;;;;2602912;54;20797;31
2022/12/06 07:45:14;;;;;;;;;;;4.20;99.90;;;;;;2603739;54;19941;31
2022/12/06 07:47:49;;;;;;;;;;;4.20;99.90;;;;;;2603709;54;19994;31
2022/12/06 07:50:27;;;;;;;;;;;4.20;99.90;;;;;;2603359;54;19934;31
2022/12/06 07:53:01;;;;;;;;;;;4.20;99.90;;;;;;2622380;46;20767;31
2022/12/06 07:55:36;;;;;;;;;;;4.20;99.90;;;;;;2603460;54;20765;31
2022/12/06 07:58:10;;;;;;;;;;;4.20;99.90;;;;;;2622359;46;19935;31
2022/12/06 08:00:45;;;;;;;;;;;4.20;99.90;;;;;;2622229;46;19934;31
2022/12/06 08:03:20;;;;;;;;;;;4.10;99.90;;;;;;2603364;54;19934;31
2022/12/06 08:05:58;;;;;;;;;;;4.20;99.90;;;;;;2603740;54;20782;31
2022/12/06 08:08:32;;;;;;;;;;;4.10;99.90;;;;;;2622076;46;19942;31
2022/12/06 08:11:07;;;;;;;;;;;4.10;99.90;;;;;;2603764;54;20042;31
2022/12/06 08:13:43;;;;;;;;;;;4.10;99.90;;;;;;2622105;46;20799;31
2022/12/06 08:16:18;;;;;;;;;;;4.10;99.90;;;;;;2622204;46;19935;31
2022/12/06 08:18:54;;;;;;;;;;;4.10;99.90;;;;;;2622171;46;20715;31
2022/12/06 08:21:30;;;;;;;;;;;4.10;99.90;;;;;;2603847;54;20763;31
2022/12/06 08:24:08;;;;;;;;;;;4.10;99.90;;;;;;2622071;46;19947;31
2022/12/06 08:26:43;;;;;;;;;;;4.10;99.90;;;;;;2603824;54;19972;31
2022/12/06 08:29:18;;;;;;;;;;;4.10;99.90;;;;;;2603956;54;19954;31
2022/12/06 08:31:51;;;;;;;;;;;4.00;99.90;;;;;;2622098;46;20776;31
2022/12/06 08:34:27;;;;;;;;;;;4.00;99.90;;;;;;2622333;46;20010;31
2022/12/06 08:37:02;;;;;;;;;;;4.00;99.90;;;;;;2603654;54;20010;31
2022/12/06 08:39:40;;;;;;;;;;;4.00;99.90;;;;;;2603598;54;19958;31
2022/12/06 08:42:13;;;;;;;;;;;4.00;99.90;;;;;;2603637;54;19947;31
2022/12/06 08:44:50;;;;;;;;;;;4.00;99.90;;;;;;2621729;46;20810;31
2022/12/06 08:47:26;;;;;;;;;;;3.90;99.90;;;;;;2622154;46;20004;31
2022/12/06 08:50:00;;;;;;;;;;;3.90;99.90;;;;;;2603886;54;19935;31
2022/12/06 08:52:35;;;;;;;;;;;3.90;99.90;;;;;;2622338;46;19942;31
2022/12/06 08:55:13;;;;;;;;;;;3.90;99.90;;;;;;2603463;54;20009;31
2022/12/06 08:57:50;;;;;;;;;;;3.90;99.90;;;;;;2622156;46;19950;31
2022/12/06 09:00:25;;;;;;;;;;;3.90;99.90;;;;;;2603471;54;19989;31
2022/12/06 09:02:57;;;;;;;;;;;3.90;99.90;;;;;;2622024;46;19989;31
2022/12/06 09:05:31;;;;;;;;;;;3.90;99.90;;;;;;2621808;46;20724;31
2022/12/06 09:08:05;;;;;;;;;;;3.90;99.90;;;;;;2622085;46;19997;31
2022/12/06 09:10:43;;;;;;;;;;;3.90;99.90;;;;;;2619836;46;20362;31
2022/12/06 09:13:18;;;;;;;;;;;3.90;99.90;;;;;;2603538;54;21447;31
2022/12/06 09:15:55;;;;;;;;;;;3.90;99.90;;;;;;2603638;54;19941;31
2022/12/06 09:18:31;;;;;;;;;;;3.90;99.90;;;;;;2603066;54;19935;31
2022/12/06 09:21:06;;;;;;;;;;;3.90;99.90;;;;;;2603526;54;19941;31
2022/12/06 09:23:41;;;;;;;;;;;3.90;99.90;;;;;;2622186;46;20776;31
2022/12/06 09:26:16;;;;;;;;;;;3.90;99.90;;;;;;2622218;46;19935;31
2022/12/06 09:28:51;;;;;;;;;;;3.90;99.90;;;;;;2622002;46;19941;31
2022/12/06 09:31:25;;;;;;;;;;;4.70;99.90;;;;;;2603298;54;19941;31
2022/12/06 09:33:59;;;;;;;;;;;3.90;99.90;;;;;;2603583;54;20718;31
2022/12/06 09:36:34;;;;;;;;;;;3.90;99.90;;;;;;2602701;54;20013;31
2022/12/06 09:39:08;;;;;;;;;;;4.20;99.90;;;;;;2603316;54;19941;31
2022/12/06 09:41:58;;;;;;;;;;;3.90;99.90;;;;;;2603347;54;19950;31
2022/12/06 09:44:46;;;;;;;;;;;3.90;99.90;;;;;;2603405;54;20731;31
2022/12/06 09:47:26;;;;;;;;;;;3.90;99.90;;;;;;2603244;54;19942;31
2022/12/06 09:50:02;;;;;;;;;;;3.90;99.90;;;;;;2602540;54;20845;31
2022/12/06 09:52:43;;;;;;;;;;;3.90;99.90;;;;;;2621487;46;20805;31
2022/12/06 09:55:20;;;;;;;;;;;3.90;99.90;;;;;;2603276;54;20736;31
2022/12/06 09:57:56;;;;;;;;;;;4.00;99.90;;;;;;2603185;54;20777;31
2022/12/06 10:00:29;;;;;;;;;;;4.00;99.90;;;;;;2621593;46;20760;31
2022/12/06 10:03:12;;;;;;;;;;;4.00;99.90;;;;;;2621794;46;20791;31
2022/12/06 10:06:00;;;;;;;;;;;4.00;99.90;;;;;;2622194;46;19935;31
2022/12/06 10:08:38;;;;;;;;;;;4.00;99.90;;;;;;2603097;54;20002;31
2022/12/06 10:11:14;;;;;;;;;;;4.00;99.90;;;;;;2603361;54;19935;31
2022/12/06 10:13:52;;;;;;;;;;;4.00;99.90;;;;;;2603314;54;20792;31
2022/12/06 10:16:29;;;;;;;;;;;4.00;99.90;;;;;;2604161;54;19989;31
2022/12/06 10:19:14;;;;;;;;;;;3.90;99.90;;;;;;2622472;46;19935;31
2022/12/06 10:21:52;;;;;;;;;;;3.90;99.90;;;;;;2622728;46;20768;31
2022/12/06 10:24:33;;;;;;;;;;;3.90;99.90;;;;;;2622712;46;20011;31
2022/12/06 10:27:07;;;;;;;;;;;3.80;99.90;;;;;;2603993;54;19977;31
2022/12/06 10:29:45;;;;;;;;;;;3.80;99.90;;;;;;2603929;54;19987;31
2022/12/06 10:32:21;;;;;;;;;;;3.80;99.90;;;;;;2603900;54;20804;31
2022/12/06 10:34:59;;;;;;;;;;;3.70;99.90;;;;;;2609961;46;19946;31
2022/12/06 10:37:37;;;;;;;;;;;3.70;99.90;;;;;;2604196;54;19941;31
2022/12/06 10:40:14;;;;;;;;;;;3.70;99.90;;;;;;2622295;46;19934;31
2022/12/06 10:42:49;;;;;;;;;;;3.70;99.90;;;;;;2604064;54;19946;31
2022/12/06 10:48:11;;;;;;;;;;;3.70;99.90;;;;;;2622859;46;20746;31
2022/12/06 10:50:48;;;;;;;;;;;3.70;99.90;;;;;;2603817;54;19941;31
2022/12/06 10:53:23;;;;;;;;;;;3.70;99.90;;;;;;2622263;46;19946;31
2022/12/06 10:56:00;;;;;;;;;;;3.70;99.90;;;;;;2603579;54;19935;31
2022/12/06 10:58:36;;;;;;;;;;;3.70;99.90;;;;;;2622484;46;20009;31
2022/12/06 11:01:12;;;;;;;;;;;3.70;99.90;;;;;;2603718;54;20771;31
2022/12/06 11:03:49;;;;;;;;;;;3.70;99.90;;;;;;2603779;54;19941;31
2022/12/06 11:06:27;;;;;;;;;;;4.30;99.90;;;;;;2603849;54;19950;31
2022/12/06 11:09:04;;;;;;;;;;;3.70;99.90;;;;;;2622655;46;19942;31
2022/12/06 11:11:39;;;;;;;;;;;3.70;99.90;;;;;;2615253;46;19998;31
2022/12/06 11:14:14;;;;;;;;;;;4.50;99.90;;;;;;2720839;39;20277;31
2022/12/06 11:16:50;;;;;;;;;;;3.70;99.90;;;;;;2622518;46;19935;31
2022/12/06 11:19:29;;;;;;;;;;;3.70;99.90;;;;;;2603806;54;19935;31
2022/12/06 11:22:06;;;;;;;;;;;3.70;99.90;;;;;;2622388;46;19934;31
2022/12/06 11:24:47;;;;;;;;;;;3.70;99.90;;;;;;2622383;46;19981;31
2022/12/06 11:27:24;;;;;;;;;;;3.70;99.90;;;;;;2603782;54;20731;31
2022/12/06 11:29:59;;;;;;;;;;;3.70;99.90;;;;;;2603144;54;19985;31
2022/12/06 11:32:35;;;;;;;;;;;3.70;99.90;;;;;;2603769;54;19947;31
2022/12/06 11:35:14;;;;;;;;;;;3.70;99.90;;;;;;2603631;54;20792;31
2022/12/06 11:37:48;;;;;;;;;;;3.70;99.90;;;;;;2622281;46;19977;31
2022/12/06 11:40:28;;;;;;;;;;;3.80;99.90;;;;;;2603455;54;19935;31
2022/12/06 11:43:02;;;;;;;;;;;3.80;99.90;;;;;;2603616;54;20753;31
2022/12/06 11:45:37;;;;;;;;;;;3.80;99.90;;;;;;2603890;54;20764;31
2022/12/06 11:48:13;;;;;;;;;;;3.80;99.90;;;;;;2622415;46;19938;31
2022/12/06 11:50:49;;;;;;;;;;;3.80;99.90;;;;;;2702495;39;21013;31
2022/12/06 11:53:24;;;;;;;;;;;3.80;99.90;;;;;;2603818;54;19935;31
2022/12/06 11:56:02;;;;;;;;;;;3.80;99.90;;;;;;2622465;46;20755;31
2022/12/06 11:58:37;;;;;;;;;;;3.80;99.90;;;;;;2622333;46;19941;31
2022/12/06 12:01:13;;;;;;;;;;;3.80;99.90;;;;;;2622517;46;19934;31
2022/12/06 12:03:47;;;;;;;;;;;3.80;99.90;;;;;;2621939;46;19958;31
2022/12/06 12:06:23;;;;;;;;;;;3.80;99.90;;;;;;2603825;54;19934;31
2022/12/06 12:08:59;;;;;;;;;;;3.80;99.90;;;;;;2622079;46;20386;31
2022/12/06 12:11:40;;;;;;;;;;;3.80;99.90;;;;;;2622403;46;19942;31
2022/12/06 12:14:17;;;;;;;;;;;3.80;99.90;;;;;;2603789;54;19942;31
2022/12/06 12:16:51;;;;;;;;;;;3.80;99.90;;;;;;2622237;46;19934;31
2022/12/06 12:19:31;;;;;;;;;;;3.80;99.90;;;;;;2603747;54;19970;31
2022/12/06 12:22:16;;;;;;;;;;;3.90;99.90;;;;;;2603462;54;19942;31
2022/12/06 12:24:56;;;;;;;;;;;3.80;99.90;;;;;;2603535;54;19950;31
2022/12/06 12:27:54;;;;;;;;;;;3.80;99.90;;;;;;2622150;46;19965;31
2022/12/06 12:30:34;;;;;;;;;;;3.90;99.90;;;;;;2603572;54;19942;31
2022/12/06 12:33:18;;;;;;;;;;;3.90;99.90;;;;;;2603461;54;20734;31
2022/12/06 12:35:55;;;;;;;;;;;3.80;99.90;;;;;;2622445;46;20726;31
2022/12/06 12:38:31;;;;;;;;;;;3.90;99.90;;;;;;2621705;46;20013;31
2022/12/06 12:41:11;;;;;;;;;;;3.80;99.90;;;;;;2603350;54;20019;31
2022/12/06 12:43:48;;;;;;;;;;;3.80;99.90;;;;;;2603865;54;19935;31
2022/12/06 12:46:47;;;;;;;;;;;3.90;99.90;;;;;;2603217;54;19942;31
2022/12/06 12:49:26;;;;;;;;;;;3.90;99.90;;;;;;2603441;54;19934;31
2022/12/06 12:52:01;;;;;;;;;;;3.80;99.90;;;;;;2603459;54;20791;31
2022/12/06 12:54:36;;;;;;;;;;;3.80;99.90;;;;;;2622114;46;19959;31
2022/12/06 12:57:14;;;;;;;;;;;3.80;99.90;;;;;;2603300;54;20025;31
2022/12/06 12:59:47;;;;;;;;;;;3.80;99.90;;;;;;2622207;46;19935;31
2022/12/06 13:02:26;;;;;;;;;;;3.70;99.90;;;;;;2603365;54;20795;31
2022/12/06 13:05:01;;;;;;;;;;;3.70;99.90;;;;;;2622266;46;19942;31
2022/12/06 13:07:57;;;;;;;;;;;3.70;99.90;;;;;;2622109;46;19954;31
2022/12/06 13:10:33;;;;;;;;;;;3.80;99.90;;;;;;2603667;54;20781;31
2022/12/06 13:13:08;;;;;;;;;;;3.70;99.90;;;;;;2603566;54;20014;31
2022/12/06 13:15:46;;;;;;;;;;;3.70;99.90;;;;;;2603569;54;19934;31
2022/12/06 13:18:23;;;;;;;;;;;3.70;99.90;;;;;;2603289;54;19935;31
2022/12/06 13:20:57;;;;;;;;;;;3.70;99.90;;;;;;2621808;46;19946;31
2022/12/06 13:23:33;;;;;;;;;;;3.70;99.90;;;;;;2603472;54;19935;31
2022/12/06 13:26:08;;;;;;;;;;;3.70;99.90;;;;;;2621918;46;19934;31
2022/12/06 13:28:44;;;;;;;;;;;3.80;99.90;;;;;;2603179;54;19956;31
2022/12/06 13:31:18;;;;;;;;;;;3.70;99.90;;;;;;2603578;54;20005;31
2022/12/06 13:33:58;;;;;;;;;;;3.70;99.90;;;;;;2621868;46;20781;31
2022/12/06 13:36:34;;;;;;;;;;;3.70;99.90;;;;;;2603763;54;19946;31
2022/12/06 13:39:22;;;;;;;;;;;3.70;99.90;;;;;;2622051;46;19946;31
2022/12/06 13:44:52;;;;;;;;;;;3.70;99.90;;;;;;2603344;54;20772;31
2022/12/06 13:47:40;;;;;;;;;;;3.70;99.90;;;;;;2603414;54;20856;31
2022/12/06 13:50:29;;;;;;;;;;;3.60;99.90;;;;;;2621670;47;20720;31
2022/12/06 13:53:08;;;;;;;;;;;3.60;99.90;;;;;;2603485;54;20021;31
2022/12/06 13:55:56;;;;;;;;;;;3.60;99.90;;;;;;2621446;46;20779;31
2022/12/06 13:58:41;;;;;;;;;;;3.60;99.90;;;;;;2622142;46;19946;31
2022/12/06 14:01:29;;;;;;;;;;;3.60;99.90;;;;;;2621657;46;19935;31
2022/12/06 14:04:31;;;;;;;;;;;3.60;99.90;;;;;;2622050;46;20756;31
2022/12/06 14:07:04;;;;;;;;;;;3.60;99.90;;;;;;2603139;54;19946;31
2022/12/06 14:09:46;;;;;;;;;;;3.60;99.90;;;;;;2603372;54;20011;31
2022/12/06 14:12:21;;;;;;;;;;;3.60;99.90;;;;;;2621887;47;19935;31
2022/12/06 14:14:58;;;;;;;;;;;3.60;99.90;;;;;;2603417;54;19993;31
2022/12/06 14:17:36;;;;;;;;;;;3.60;99.90;;;;;;2603245;54;20081;31
2022/12/06 14:20:30;;;;;;;;;;;3.60;99.90;;;;;;2603312;54;19941;31
2022/12/06 14:23:04;;;;;;;;;;;3.60;99.90;;;;;;2603072;54;20664;31
2022/12/06 14:25:42;;;;;;;;;;;3.60;99.90;;;;;;2621804;46;19947;31
2022/12/06 14:28:16;;;;;;;;;;;3.60;99.90;;;;;;2603183;54;19942;31
2022/12/06 14:30:53;;;;;;;;;;;3.60;99.90;;;;;;2621665;47;19941;31
2022/12/06 14:33:26;;;;;;;;;;;3.60;99.90;;;;;;2621440;47;20725;31
2022/12/06 14:35:58;;;;;;;;;;;3.60;99.90;;;;;;2720380;39;21111;31
2022/12/06 14:38:32;;;;;;;;;;;3.60;99.90;;;;;;2603168;54;19942;31
2022/12/06 14:44:03;;;;;;;;;;;3.60;99.90;;;;;;2603090;54;19947;31
2022/12/06 14:46:40;;;;;;;;;;;3.70;99.90;;;;;;2621506;47;19942;31
2022/12/06 14:52:02;;;;;;;;;;;3.70;99.90;;;;;;2603317;54;19941;31
2022/12/06 14:54:36;;;;;;;;;;;3.70;99.90;;;;;;2621280;47;19935;31
2022/12/06 14:57:15;;;;;;;;;;;3.70;99.90;;;;;;2701917;39;22136;31
2022/12/06 14:59:48;;;;;;;;;;;3.70;99.90;;;;;;2603281;54;19954;31
2022/12/06 15:02:43;;;;;;;;;;;3.70;99.90;;;;;;2622474;46;19954;31
2022/12/06 15:05:33;;;;;;;;;;;3.70;99.90;;;;;;2622409;46;19940;31
2022/12/06 15:08:19;;;;;;;;;;;3.70;99.90;;;;;;2603969;54;19994;31
2022/12/06 15:10:56;;;;;;;;;;;3.70;99.90;;;;;;2622457;46;20747;31
2022/12/06 15:13:30;;;;;;;;;;;3.70;99.90;;;;;;2603689;54;19957;31
2022/12/06 15:16:05;;;;;;;;;;;3.70;99.90;;;;;;2603385;54;19938;31
2022/12/06 15:18:41;;;;;;;;;;;3.70;99.90;;;;;;2603314;54;20756;31
2022/12/06 15:21:14;;;;;;;;;;;3.80;99.90;;;;;;2603740;54;19950;31
2022/12/06 15:23:49;;;;;;;;;;;3.70;99.90;;;;;;2622198;46;20820;31
2022/12/06 15:26:25;;;;;;;;;;;3.70;99.90;;;;;;2603884;54;19990;31
2022/12/06 15:29:02;;;;;;;;;;;3.70;99.90;;;;;;2603839;54;20732;31
2022/12/06 15:31:37;;;;;;;;;;;3.70;99.90;;;;;;2603842;54;19985;31
2022/12/06 15:34:22;;;;;;;;;;;3.70;99.90;;;;;;2603604;54;19934;31
2022/12/06 15:36:56;;;;;;;;;;;3.70;99.90;;;;;;2603832;54;19946;31
2022/12/06 15:39:49;;;;;;;;;;;3.70;99.90;;;;;;2614695;46;19993;31
2022/12/06 15:42:21;;;;;;;;;;;3.90;99.90;;;;;;2702584;39;21034;31
2022/12/06 15:45:00;;;;;;;;;;;3.80;99.90;;;;;;2622060;46;19939;31
2022/12/06 15:47:36;;;;;;;;;;;3.80;99.90;;;;;;2603995;54;19942;31
2022/12/06 15:50:14;;;;;;;;;;;4.60;99.90;;;;;;2622629;46;20767;31
2022/12/06 15:52:48;;;;;;;;;;;3.80;99.90;;;;;;2622275;46;19993;31
2022/12/06 15:55:22;;;;;;;;;;;3.80;99.90;;;;;;2604030;54;19935;31
2022/12/06 15:57:56;;;;;;;;;;;3.90;99.90;;;;;;2603497;54;20013;31
2022/12/06 16:00:33;;;;;;;;;;;3.90;99.90;;;;;;2622154;46;19941;31
2022/12/06 16:03:10;;;;;;;;;;;3.90;99.90;;;;;;2622122;46;20685;31
2022/12/06 16:05:46;;;;;;;;;;;4.00;99.90;;;;;;2622358;46;20013;31
2022/12/06 16:08:21;;;;;;;;;;;3.90;99.90;;;;;;2603713;54;20753;31
2022/12/06 16:10:58;;;;;;;;;;;3.90;99.90;;;;;;2603602;54;19935;31
2022/12/06 16:13:50;;;;;;;;;;;3.90;99.90;;;;;;2622224;47;19934;31